Time;durP1;ratioP1;P1;durP2;ratioP2;P2;SDS_P1;SDS_P2;PMS_P1;PMS_P2;Temp;Humidity;BMP_temperature;BMP_pressure;BME280_temperature;BME280_humidity;BME280_pressure;Samples;Min_cycle;Max_cycle;Signal;HPM_P1;HPM_P2
2021/09/06 00:02:22;;;;;;;4.33;2.27;;;;;;;10.68;67.86;101720.64;1850175;76;21497;-62
2021/09/06 00:04:51;;;;;;;3.80;2.17;;;;;;;10.67;68.03;101718.89;1850307;76;21131;-63
2021/09/06 00:07:20;;;;;;;2.95;2.08;;;;;;;10.69;68.11;101722.81;1850190;77;21058;-63
2021/09/06 00:09:52;;;;;;;3.00;2.12;;;;;;;10.73;68.40;101722.69;1850182;76;21074;-63
2021/09/06 00:12:21;;;;;;;3.52;2.10;;;;;;;10.77;68.46;101723.05;1850177;76;21047;-62
2021/09/06 00:14:52;;;;;;;4.72;2.27;;;;;;;10.80;68.33;101727.37;1850079;76;21099;-63
2021/09/06 00:17:21;;;;;;;4.30;1.98;;;;;;;10.78;68.43;101727.40;1850279;77;21074;-63
2021/09/06 00:19:50;;;;;;;4.28;2.02;;;;;;;10.78;68.63;101726.08;1850149;77;21047;-63
2021/09/06 00:22:19;;;;;;;4.92;1.90;;;;;;;10.81;68.48;101727.34;1850072;76;21078;-63
2021/09/06 00:24:47;;;;;;;4.10;1.60;;;;;;;10.82;68.38;101727.73;1850271;77;21149;-64
2021/09/06 00:27:16;;;;;;;4.05;2.02;;;;;;;10.81;68.44;101728.66;1850341;77;21070;-63
2021/09/06 00:29:46;;;;;;;3.25;1.90;;;;;;;10.76;68.58;101727.89;1850191;77;21107;-63
2021/09/06 00:32:15;;;;;;;6.08;2.27;;;;;;;10.70;68.53;101732.00;1850155;77;21191;-64
2021/09/06 00:34:44;;;;;;;3.50;1.80;;;;;;;10.66;68.52;101734.30;1850197;76;21062;-63
2021/09/06 00:37:13;;;;;;;3.90;2.00;;;;;;;10.61;68.56;101734.84;1850115;77;21426;-63
2021/09/06 00:40:02;;;;;;;3.50;2.05;;;;;;;10.62;68.45;101731.30;1850156;77;21076;-63
2021/09/06 00:42:31;;;;;;;4.90;2.20;;;;;;;10.61;68.53;101732.22;1819218;77;21123;-60
2021/09/06 00:45:00;;;;;;;5.05;1.87;;;;;;;10.56;68.54;101731.45;1819168;77;21034;-60
2021/09/06 00:47:29;;;;;;;5.15;2.15;;;;;;;10.54;68.55;101731.48;1819066;79;21111;-61
2021/09/06 00:49:57;;;;;;;2.98;1.80;;;;;;;10.52;68.66;101728.48;1819317;78;21064;-60
2021/09/06 00:52:26;;;;;;;4.62;1.92;;;;;;;10.53;68.65;101732.83;1819139;79;21088;-60
2021/09/06 00:54:55;;;;;;;7.00;2.50;;;;;;;10.54;68.51;101735.89;1819107;79;21127;-61
2021/09/06 00:57:25;;;;;;;5.17;2.37;;;;;;;10.55;68.48;101733.66;1819088;79;21147;-62
2021/09/06 00:59:55;;;;;;;4.97;2.50;;;;;;;10.58;68.69;101735.77;1819159;79;21579;-63
2021/09/06 01:02:24;;;;;;;4.30;2.00;;;;;;;10.60;68.74;101742.32;1819225;79;21541;-63
2021/09/06 01:04:53;;;;;;;5.47;2.33;;;;;;;10.61;68.78;101738.80;1819278;78;21519;-62
2021/09/06 01:07:42;;;;;;;6.85;2.20;;;;;;;10.62;68.73;101729.98;1731382;81;21522;-63
2021/09/06 01:10:28;;;;;;;5.15;2.15;;;;;;;10.63;68.64;101728.63;1731212;82;21543;-62
2021/09/06 01:12:59;;;;;;;5.30;2.12;;;;;;;10.60;68.64;101725.20;1773471;77;21154;-62
2021/09/06 01:15:30;;;;;;;5.47;2.33;;;;;;;10.61;68.67;101733.53;1818813;76;21037;-61
2021/09/06 01:17:59;;;;;;;5.53;2.10;;;;;;;10.57;68.85;101733.20;1819214;79;21528;-62
2021/09/06 01:20:28;;;;;;;3.70;2.33;;;;;;;10.55;68.83;101734.97;1819184;78;21504;-63
2021/09/06 01:22:59;;;;;;;4.97;2.25;;;;;;;10.53;68.92;101732.83;1819030;79;21068;-62
2021/09/06 01:25:32;;;;;;;5.80;2.35;;;;;;;10.51;69.22;101739.90;1815812;79;21569;-60
2021/09/06 01:28:01;;;;;;;5.03;2.75;;;;;;;10.43;69.59;101735.67;1819239;79;21084;-60
2021/09/06 01:30:29;;;;;;;5.95;2.90;;;;;;;10.36;70.14;101732.75;1819151;79;21060;-60
2021/09/06 01:32:59;;;;;;;3.10;2.17;;;;;;;10.35;69.95;101732.81;1819138;79;21140;-60
2021/09/06 01:35:28;;;;;;;4.83;2.40;;;;;;;10.35;69.91;101734.98;1819358;78;21092;-60
2021/09/06 01:37:57;;;;;;;5.53;3.00;;;;;;;10.31;70.13;101734.65;1819011;79;21084;-60
2021/09/06 01:40:26;;;;;;;6.22;2.30;;;;;;;10.27;70.44;101736.88;1819124;79;21147;-60
2021/09/06 01:42:55;;;;;;;5.12;2.60;;;;;;;10.23;70.76;101734.75;1839019;77;21169;-60
2021/09/06 01:45:24;;;;;;;6.78;2.60;;;;;;;10.19;70.72;101736.19;1839665;78;21106;-60
2021/09/06 01:47:53;;;;;;;7.00;2.60;;;;;;;10.12;70.91;101734.58;1839602;77;21666;-60
2021/09/06 01:50:24;;;;;;;6.08;2.33;;;;;;;10.05;71.14;101745.25;1839864;78;21528;-60
2021/09/06 01:52:54;;;;;;;9.55;2.77;;;;;;;10.04;71.24;101742.19;1839769;77;21160;-61
2021/09/06 01:55:23;;;;;;;5.65;2.60;;;;;;;9.96;71.52;101734.91;1857766;75;21054;-61
2021/09/06 01:57:54;;;;;;;5.58;2.50;;;;;;;9.92;71.65;101733.67;1840009;77;21533;-60
2021/09/06 02:00:42;;;;;;;5.17;2.47;;;;;;;9.88;71.85;101738.59;1839646;78;21606;-60
2021/09/06 02:03:11;;;;;;;5.60;3.00;;;;;;;9.82;71.92;101735.63;1857631;77;21085;-61
2021/09/06 02:05:48;;;;;;;7.60;2.47;;;;;;;9.79;72.11;101740.52;1855905;77;21169;-61
2021/09/06 02:08:18;;;;;;;4.03;3.35;;;;;;;9.82;71.97;101748.33;1856471;76;21094;-62
2021/09/06 02:10:47;;;;;;;3.87;2.65;;;;;;;9.82;71.88;101745.70;1857635;77;21140;-61
2021/09/06 02:13:16;;;;;;;8.28;3.08;;;;;;;9.84;71.84;101748.30;1857573;77;21144;-61
2021/09/06 02:15:45;;;;;;;7.58;3.27;;;;;;;9.80;72.14;101756.70;1857649;77;21622;-61
2021/09/06 02:18:14;;;;;;;9.03;3.40;;;;;;;9.75;72.37;101754.60;1857527;77;21574;-62
2021/09/06 02:20:43;;;;;;;8.15;3.50;;;;;;;9.73;72.54;101759.48;1857622;77;21543;-62
2021/09/06 02:23:14;;;;;;;9.10;3.83;;;;;;;9.72;72.56;101761.26;1857345;76;21629;-62
2021/09/06 02:25:43;;;;;;;8.65;3.80;;;;;;;9.74;72.33;101766.46;1857534;77;21069;-61
2021/09/06 02:28:13;;;;;;;11.75;6.17;;;;;;;9.75;72.19;101769.52;1857620;77;21595;-62
2021/09/06 02:30:41;;;;;;;6.47;3.90;;;;;;;9.74;72.17;101769.09;1857783;77;21539;-61
2021/09/06 02:33:11;;;;;;;8.40;3.60;;;;;;;9.72;72.12;101768.26;1857631;77;21155;-61
2021/09/06 02:35:48;;;;;;;6.50;3.33;;;;;;;9.70;72.01;101770.94;1852707;77;21109;-62
2021/09/06 02:38:16;;;;;;;14.70;3.65;;;;;;;9.62;72.27;101773.69;1857808;77;21503;-62
2021/09/06 02:40:45;;;;;;;7.12;3.22;;;;;;;9.57;72.68;101782.13;1857617;77;21539;-61
2021/09/06 02:43:14;;;;;;;6.42;3.10;;;;;;;9.58;72.49;101788.25;1857777;77;21574;-62
2021/09/06 02:45:44;;;;;;;11.08;5.28;;;;;;;9.56;72.34;101780.39;1857751;77;21124;-62
2021/09/06 02:48:12;;;;;;;9.00;3.85;;;;;;;9.56;72.28;101783.02;1857546;77;21144;-63
2021/09/06 02:50:41;;;;;;;8.00;4.05;;;;;;;9.53;72.28;101789.63;1857689;77;21489;-62
2021/09/06 02:53:10;;;;;;;10.72;4.17;;;;;;;9.50;72.37;101797.59;1857636;77;21489;-62
2021/09/06 02:55:39;;;;;;;11.00;5.53;;;;;;;9.47;72.52;101798.95;1857629;77;21489;-62
2021/09/06 02:58:07;;;;;;;52.90;27.73;;;;;;;9.42;72.80;101797.70;1857682;77;21635;-62
2021/09/06 03:00:37;;;;;;;46.68;22.87;;;;;;;9.41;73.13;101793.36;1857581;77;21535;-62
2021/09/06 03:03:05;;;;;;;35.50;20.00;;;;;;;9.41;73.02;101802.56;1857725;76;21101;-62
2021/09/06 03:05:34;;;;;;;34.83;19.25;;;;;;;9.42;72.99;101799.47;1857643;77;21062;-62
2021/09/06 03:08:04;;;;;;;15.00;8.03;;;;;;;9.40;72.85;101803.44;1857799;77;21488;-62
2021/09/06 03:10:32;;;;;;;15.48;7.45;;;;;;;9.38;72.93;101801.74;1857727;77;21124;-62
2021/09/06 03:13:02;;;;;;;15.93;9.35;;;;;;;9.37;72.91;101802.63;1857632;77;21054;-63
2021/09/06 03:15:31;;;;;;;20.30;10.32;;;;;;;9.36;72.93;101811.42;1857710;77;21105;-63
2021/09/06 03:18:00;;;;;;;21.35;9.03;;;;;;;9.36;72.95;101811.42;1857744;77;21042;-62
2021/09/06 03:20:39;;;;;;;12.82;7.17;;;;;;;9.37;72.91;101815.34;1784718;80;21110;-62
2021/09/06 03:23:10;;;;;;;10.40;5.10;;;;;;;9.37;73.01;101814.45;1856803;77;21164;-61
2021/09/06 03:25:39;;;;;;;13.43;5.53;;;;;;;9.36;73.16;101817.99;1857628;77;21038;-62
2021/09/06 03:28:08;;;;;;;13.25;6.72;;;;;;;9.36;73.35;101820.63;1857704;77;21042;-62
2021/09/06 03:30:38;;;;;;;9.68;5.55;;;;;;;9.37;73.38;101819.70;1857613;77;21472;-62
2021/09/06 03:33:08;;;;;;;20.72;14.53;;;;;;;9.42;73.34;101823.99;1857725;77;21062;-65
2021/09/06 03:35:37;;;;;;;26.57;18.42;;;;;;;9.46;73.23;101820.45;1857701;77;21143;-65
2021/09/06 03:38:07;;;;;;;11.30;7.97;;;;;;;9.51;73.13;101825.61;1857142;76;21110;-65
2021/09/06 03:40:36;;;;;;;7.40;4.15;;;;;;;9.55;73.01;101831.23;1857746;77;21065;-64
2021/09/06 03:43:06;;;;;;;9.25;3.87;;;;;;;9.56;73.11;101832.98;1857653;77;21638;-64
2021/09/06 03:45:35;;;;;;;8.85;3.95;;;;;;;9.59;73.10;101840.82;1857688;77;21117;-64
2021/09/06 03:48:04;;;;;;;7.33;4.37;;;;;;;9.65;73.11;101840.70;1857863;77;21505;-64
2021/09/06 03:50:33;;;;;;;13.90;8.68;;;;;;;9.74;73.26;101851.52;1857500;77;21026;-65
2021/09/06 03:53:03;;;;;;;13.40;9.75;;;;;;;9.77;73.37;101858.47;1857626;77;21014;-63
2021/09/06 03:55:32;;;;;;;16.65;11.03;;;;;;;9.82;73.30;101857.95;1857848;77;21058;-63
2021/09/06 03:58:00;;;;;;;21.60;11.93;;;;;;;9.93;73.22;101861.25;1857608;77;21073;-64
2021/09/06 04:00:30;;;;;;;12.53;9.40;;;;;;;10.09;73.12;101860.95;1857674;77;21136;-64
2021/09/06 04:03:00;;;;;;;11.50;7.33;;;;;;;10.25;73.10;101868.97;1859968;77;21106;-65
2021/09/06 04:05:30;;;;;;;10.63;6.20;;;;;;;10.40;72.88;101870.04;1863581;76;21215;-64
2021/09/06 04:08:05;;;;;;;8.53;5.08;;;;;;;10.57;72.57;101871.45;1863798;77;21543;-64
2021/09/06 04:10:31;;;;;;;9.75;3.67;;;;;;;10.74;72.33;101869.77;1862565;77;21049;-64
2021/09/06 04:13:00;;;;;;;8.28;3.33;;;;;;;10.84;72.17;101872.61;1863570;77;21046;-63
2021/09/06 04:15:29;;;;;;;7.87;3.17;;;;;;;10.94;71.91;101871.52;1863613;77;21148;-64
2021/09/06 04:17:58;;;;;;;6.80;3.20;;;;;;;11.08;71.81;101865.91;1863483;77;21135;-63
2021/09/06 04:20:27;;;;;;;5.53;3.15;;;;;;;11.32;71.79;101874.16;1863704;77;21578;-64
2021/09/06 04:22:57;;;;;;;8.40;2.92;;;;;;;11.39;71.56;101872.64;1863697;77;21500;-64
2021/09/06 04:25:26;;;;;;;5.97;2.87;;;;;;;11.39;71.34;101873.97;1863588;77;21523;-64
2021/09/06 04:27:55;;;;;;;6.60;3.65;;;;;;;11.39;71.22;101870.01;1863722;77;21519;-64
2021/09/06 04:30:24;;;;;;;7.08;3.47;;;;;;;11.39;71.31;101873.11;1863499;77;21543;-64
2021/09/06 04:32:53;;;;;;;8.65;3.20;;;;;;;11.43;71.39;101872.12;1863801;77;21558;-64
2021/09/06 04:35:22;;;;;;;6.85;3.33;;;;;;;11.49;71.36;101871.98;1863821;77;21496;-64
2021/09/06 04:37:53;;;;;;;8.83;3.42;;;;;;;11.62;71.38;101874.30;1863460;77;21104;-64
2021/09/06 04:40:23;;;;;;;6.35;3.10;;;;;;;11.74;71.39;101871.36;1863652;77;21153;-63
2021/09/06 04:42:53;;;;;;;8.15;3.80;;;;;;;11.92;71.43;101870.91;1863458;76;21114;-64
2021/09/06 04:45:24;;;;;;;10.30;4.20;;;;;;;12.07;71.31;101876.69;1863682;77;21580;-64
2021/09/06 04:47:53;;;;;;;10.98;5.12;;;;;;;12.18;71.20;101871.98;1863705;77;21034;-63
2021/09/06 04:50:22;;;;;;;12.35;4.17;;;;;;;12.35;71.19;101877.64;1863596;77;21081;-64
2021/09/06 04:52:53;;;;;;;10.85;4.50;;;;;;;12.51;71.25;101870.16;1863663;77;21143;-64
2021/09/06 04:55:22;;;;;;;13.62;4.05;;;;;;;12.69;71.37;101873.19;1863635;77;21050;-64
2021/09/06 04:57:51;;;;;;;6.67;3.22;;;;;;;12.95;71.32;101873.70;1863695;77;21014;-64
2021/09/06 05:00:21;;;;;;;9.75;3.35;;;;;;;13.20;71.13;101868.95;1863631;77;21254;-64
2021/09/06 05:02:50;;;;;;;5.67;2.67;;;;;;;13.65;71.14;101875.02;1863668;77;21010;-65
2021/09/06 05:05:19;;;;;;;9.03;2.33;;;;;;;14.14;71.11;101877.27;1863575;77;21050;-65
2021/09/06 05:07:47;;;;;;;13.22;2.72;;;;;;;14.58;70.66;101873.47;1863479;77;21029;-65
2021/09/06 05:10:17;;;;;;;11.03;3.20;;;;;;;14.81;69.88;101873.05;1863809;77;21089;-64
2021/09/06 05:12:45;;;;;;;9.55;2.80;;;;;;;15.08;69.16;101871.11;1863735;77;21062;-64
2021/09/06 05:15:14;;;;;;;6.72;2.58;;;;;;;15.32;68.47;101878.53;1863573;77;21085;-64
2021/09/06 05:17:44;;;;;;;9.00;2.37;;;;;;;15.51;68.05;101879.99;1863701;77;21516;-64
2021/09/06 05:20:14;;;;;;;7.08;2.58;;;;;;;15.57;67.46;101886.83;1863505;77;21140;-65
2021/09/06 05:22:43;;;;;;;9.30;4.00;;;;;;;15.53;66.49;101887.42;1863804;77;21050;-64
2021/09/06 05:25:13;;;;;;;6.37;2.33;;;;;;;15.72;66.51;101882.20;1863659;77;21077;-64
2021/09/06 05:27:42;;;;;;;19.05;8.58;;;;;;;15.92;66.18;101885.36;1863776;77;21570;-65
2021/09/06 05:30:12;;;;;;;6.75;2.77;;;;;;;16.15;66.34;101882.16;1863653;77;21046;-64
2021/09/06 05:32:41;;;;;;;7.08;2.50;;;;;;;16.44;66.23;101879.52;1863592;77;21104;-65
2021/09/06 05:35:11;;;;;;;4.60;2.30;;;;;;;16.55;65.65;101881.22;1863663;76;21196;-64
2021/09/06 05:37:41;;;;;;;10.28;2.62;;;;;;;16.54;65.14;101883.94;1863577;77;21128;-65
2021/09/06 05:40:16;;;;;;;7.62;2.37;;;;;;;16.38;64.62;101880.67;1863486;77;21077;-64
2021/09/06 05:42:42;;;;;;;6.87;2.45;;;;;;;16.33;64.49;101887.98;1869880;76;21093;-63
2021/09/06 05:45:12;;;;;;;7.75;2.40;;;;;;;16.30;64.56;101880.61;1878410;76;21124;-63
2021/09/06 05:47:42;;;;;;;7.60;2.42;;;;;;;16.31;64.57;101883.20;1877825;75;21034;-63
2021/09/06 05:50:17;;;;;;;4.62;2.08;;;;;;;16.33;64.44;101883.14;1915292;73;21102;-62
2021/09/06 05:52:47;;;;;;;7.58;3.02;;;;;;;16.47;64.45;101890.47;1918358;74;21091;-62
2021/09/06 05:55:16;;;;;;;8.43;3.42;;;;;;;16.67;64.52;101885.57;1924610;74;21491;-62
2021/09/06 05:57:44;;;;;;;5.22;2.60;;;;;;;16.90;64.39;101888.05;1924457;74;21023;-63
2021/09/06 06:00:15;;;;;;;7.42;2.22;;;;;;;17.57;64.07;101888.35;1923867;74;21563;-62
2021/09/06 06:02:46;;;;;;;3.83;1.92;;;;;;;18.30;62.92;101890.86;1924128;74;21058;-63
2021/09/06 06:05:15;;;;;;;6.87;2.27;;;;;;;18.92;61.56;101890.20;1924700;74;21536;-63
2021/09/06 06:07:46;;;;;;;5.22;2.37;;;;;;;19.46;59.81;101896.02;1924472;74;21062;-62
2021/09/06 06:10:14;;;;;;;6.67;2.62;;;;;;;19.57;58.50;101894.91;1924430;74;21129;-63
2021/09/06 06:12:43;;;;;;;7.30;2.40;;;;;;;20.02;57.92;101890.47;1891188;74;21530;-62
2021/09/06 06:15:14;;;;;;;3.87;2.05;;;;;;;20.42;56.92;101898.72;1924644;74;21062;-62
2021/09/06 06:17:43;;;;;;;8.28;2.75;;;;;;;20.83;56.06;101901.11;1924465;74;21039;-63
2021/09/06 06:20:13;;;;;;;5.15;1.87;;;;;;;21.20;55.16;101894.22;1924483;74;21116;-62
2021/09/06 06:35:42;;;;;;;12.95;2.15;;;;;;;23.54;44.66;101905.16;1973863;72;22117;-60
2021/09/06 06:38:11;;;;;;;4.03;1.70;;;;;;;23.85;45.30;101913.11;1948956;73;21064;-60
2021/09/06 06:40:42;;;;;;;3.67;1.15;;;;;;;23.74;44.38;101902.77;1947019;73;21263;-61
2021/09/06 06:43:11;;;;;;;6.67;1.42;;;;;;;23.16;43.13;101910.70;1949067;73;21129;-61
2021/09/06 06:45:41;;;;;;;2.90;1.42;;;;;;;22.74;43.80;101907.85;1949040;73;21067;-60
2021/09/06 06:48:10;;;;;;;5.25;1.67;;;;;;;22.36;43.54;101902.53;1949087;73;21128;-60
2021/09/06 06:50:39;;;;;;;9.08;2.58;;;;;;;22.25;44.64;101904.59;1949187;73;21031;-61
2021/09/06 06:53:08;;;;;;;8.58;4.97;;;;;;;22.50;44.33;101905.10;1948944;73;21122;-61
2021/09/06 06:55:37;;;;;;;2.58;1.07;;;;;;;22.68;42.87;101911.45;1949111;73;21406;-61
2021/09/06 06:58:06;;;;;;;4.60;1.50;;;;;;;22.81;42.47;101914.11;1949165;73;21020;-60
2021/09/06 07:00:35;;;;;;;3.98;1.10;;;;;;;22.55;41.07;101905.61;1949044;73;21461;-62
2021/09/06 07:03:04;;;;;;;4.25;1.40;;;;;;;22.44;40.92;101910.03;1949189;73;21513;-62
2021/09/06 07:05:34;;;;;;;3.30;1.12;;;;;;;22.57;40.83;101907.34;1948938;73;21553;-63
2021/09/06 07:08:03;;;;;;;3.27;1.65;;;;;;;22.91;40.60;101905.77;1949029;73;21051;-63
2021/09/06 07:10:33;;;;;;;6.58;1.80;;;;;;;23.31;40.55;101908.21;1949164;73;21051;-63
2021/09/06 07:13:02;;;;;;;3.02;1.15;;;;;;;23.78;40.15;101905.11;1949120;73;21032;-63
2021/09/06 07:15:34;;;;;;;4.60;1.40;;;;;;;24.28;39.76;101904.87;1949007;73;21117;-63
2021/09/06 07:18:07;;;;;;;2.98;1.35;;;;;;;24.37;38.64;101896.57;1948968;73;21513;-64
2021/09/06 07:20:36;;;;;;;4.17;1.10;;;;;;;24.64;38.02;101895.73;1949143;73;21040;-63
2021/09/06 07:23:05;;;;;;;1.42;1.22;;;;;;;24.74;37.25;101896.34;1949224;73;21083;-63
2021/09/06 07:25:36;;;;;;;4.40;1.47;;;;;;;25.01;36.06;101899.94;1948161;73;21080;-63
2021/09/06 07:28:06;;;;;;;8.10;1.35;;;;;;;25.14;35.44;101893.92;1949141;73;21024;-62
2021/09/06 07:30:35;;;;;;;1.42;0.90;;;;;;;25.54;35.94;101890.59;1949070;73;21141;-62
2021/09/06 07:33:06;;;;;;;6.10;1.20;;;;;;;25.93;35.51;101890.93;1949186;73;21031;-61
2021/09/06 07:35:36;;;;;;;2.25;0.70;;;;;;;25.79;34.53;101885.83;1940627;73;21573;-60
2021/09/06 07:38:05;;;;;;;3.12;0.90;;;;;;;25.56;32.59;101881.03;1936447;74;21447;-60
2021/09/06 07:40:35;;;;;;;4.90;1.37;;;;;;;25.11;31.86;101883.89;1936380;74;21086;-62
2021/09/06 07:43:04;;;;;;;4.37;1.32;;;;;;;25.21;33.35;101884.34;1936267;74;21067;-62
2021/09/06 07:45:35;;;;;;;3.20;1.30;;;;;;;25.41;33.62;101885.88;1936180;74;21120;-61
2021/09/06 07:48:24;;;;;;;4.47;2.30;;;;;;;25.58;33.89;101886.68;1935743;74;21125;-61
2021/09/06 07:50:55;;;;;;;4.67;1.32;;;;;;;25.39;34.13;101886.01;1948311;74;21135;-61
2021/09/06 07:53:25;;;;;;;3.30;0.90;;;;;;;25.35;34.28;101885.06;1948457;73;21003;-62
2021/09/06 07:55:54;;;;;;;3.05;1.07;;;;;;;25.00;33.42;101880.73;1948475;74;21466;-61
2021/09/06 07:58:25;;;;;;;1.32;0.80;;;;;;;24.60;32.28;101894.24;1947857;74;21525;-61
2021/09/06 08:00:54;;;;;;;4.00;1.00;;;;;;;24.20;31.60;101893.38;1948527;73;21023;-61
2021/09/06 08:03:23;;;;;;;6.08;1.77;;;;;;;23.91;32.11;101885.38;1948479;74;21112;-61
2021/09/06 08:05:52;;;;;;;8.25;1.20;;;;;;;23.81;33.04;101884.75;1948459;74;21116;-62
2021/09/06 08:08:21;;;;;;;3.85;1.72;;;;;;;23.70;33.79;101881.51;1948381;74;21023;-61
2021/09/06 08:10:51;;;;;;;6.53;1.20;;;;;;;23.63;33.71;101880.75;1948510;74;21050;-61
2021/09/06 08:13:22;;;;;;;1.65;0.90;;;;;;;23.28;34.08;101886.97;1947743;74;21050;-61
2021/09/06 08:15:51;;;;;;;4.03;1.10;;;;;;;23.08;34.34;101889.79;1948434;73;21019;-61
2021/09/06 08:18:20;;;;;;;3.08;1.10;;;;;;;22.61;34.35;101889.58;1948433;73;21019;-61
2021/09/06 08:20:51;;;;;;;2.35;0.90;;;;;;;22.78;34.93;101888.81;1948383;74;21051;-62
2021/09/06 08:23:21;;;;;;;2.08;0.82;;;;;;;22.89;33.71;101888.92;1948562;74;21105;-61
2021/09/06 08:25:51;;;;;;;1.75;1.02;;;;;;;23.08;32.78;101887.95;1948630;74;21543;-61
2021/09/06 08:28:22;;;;;;;14.00;5.78;;;;;;;23.62;31.71;101887.94;1948443;74;21051;-61
2021/09/06 08:30:51;;;;;;;9.35;4.60;;;;;;;24.24;32.53;101885.42;1948465;73;21015;-61
2021/09/06 08:33:21;;;;;;;3.35;2.00;;;;;;;25.14;31.84;101879.57;1948472;74;21109;-61
2021/09/06 08:35:50;;;;;;;14.15;5.78;;;;;;;25.73;30.57;101881.81;1948374;74;21023;-61
2021/09/06 08:38:20;;;;;;;3.37;1.37;;;;;;;26.14;29.38;101877.40;1948503;74;21456;-61
2021/09/06 08:40:51;;;;;;;1.35;0.90;;;;;;;26.19;28.73;101871.11;1948292;74;21056;-61
2021/09/06 08:43:21;;;;;;;4.17;1.12;;;;;;;25.88;27.38;101878.80;1948480;74;21027;-61
2021/09/06 08:45:50;;;;;;;5.35;1.30;;;;;;;26.02;26.91;101868.17;1948433;74;21165;-61
2021/09/06 08:48:20;;;;;;;1.90;1.10;;;;;;;26.07;26.81;101870.83;1948500;74;21441;-61
2021/09/06 08:50:49;;;;;;;4.78;1.55;;;;;;;25.74;27.17;101867.33;1939236;74;21129;-61
2021/09/06 08:53:21;;;;;;;6.20;1.45;;;;;;;25.67;27.98;101870.69;1935669;74;21434;-61
2021/09/06 08:55:49;;;;;;;10.68;1.50;;;;;;;26.17;27.59;101871.74;1935300;74;21051;-61
2021/09/06 08:58:18;;;;;;;8.00;1.92;;;;;;;26.88;26.82;101873.56;1935527;74;21422;-61
2021/09/06 09:00:49;;;;;;;20.05;9.43;;;;;;;27.33;27.25;101859.56;1935742;74;21059;-62
2021/09/06 09:03:20;;;;;;;10.68;6.33;;;;;;;27.00;26.63;101866.69;1932710;74;21076;-62
2021/09/06 09:06:05;;;;;;;12.20;5.92;;;;;;;27.37;26.33;101877.72;1933804;74;21588;-62
2021/09/06 09:08:51;;;;;;;5.50;1.92;;;;;;;27.30;25.86;101865.25;1934759;74;21601;-63
2021/09/06 09:11:27;;;;;;;3.02;1.75;;;;;;;27.25;25.92;101870.19;1933116;74;21084;-62
2021/09/06 09:14:13;;;;;;;4.33;1.10;;;;;;;27.06;26.04;101865.64;1933895;74;21139;-62
2021/09/06 09:16:55;;;;;;;3.92;1.00;;;;;;;26.35;26.63;101863.00;1932735;74;21099;-63
2021/09/06 09:19:43;;;;;;;3.15;1.52;;;;;;;26.10;27.19;101865.17;1935652;74;21043;-62
2021/09/06 09:22:21;;;;;;;7.70;4.55;;;;;;;25.89;27.54;101868.34;1864660;74;21227;-62
2021/09/06 09:25:05;;;;;;;11.48;4.97;;;;;;;25.56;27.38;101868.89;1933042;74;21076;-62
2021/09/06 09:27:39;;;;;;;3.42;1.98;;;;;;;25.66;27.40;101873.03;1859690;74;21179;-62
2021/09/06 09:30:30;;;;;;;12.58;4.53;;;;;;;25.58;26.97;101872.31;1934285;74;21169;-62
2021/09/06 09:33:11;;;;;;;12.35;3.30;;;;;;;25.46;27.17;101866.14;1928421;74;21064;-62
2021/09/06 09:36:00;;;;;;;4.00;2.02;;;;;;;25.14;27.37;101868.80;1932564;74;21190;-63
2021/09/06 09:38:35;;;;;;;17.87;7.25;;;;;;;24.70;28.08;101873.30;1935657;74;21019;-62
2021/09/06 09:41:13;;;;;;;12.15;4.95;;;;;;;24.76;28.44;101871.48;1897603;75;21067;-62
2021/09/06 09:43:44;;;;;;;5.65;2.52;;;;;;;24.84;28.38;101864.96;1862266;77;21142;-62
2021/09/06 09:46:15;;;;;;;3.02;1.62;;;;;;;24.68;28.04;101867.19;1861826;77;21530;-63
2021/09/06 09:48:45;;;;;;;3.52;1.07;;;;;;;25.07;27.75;101868.97;1934282;74;21157;-62
2021/09/06 09:51:15;;;;;;;7.70;2.92;;;;;;;24.91;27.28;101868.86;1946098;73;21079;-62
2021/09/06 09:53:44;;;;;;;2.60;1.10;;;;;;;24.73;28.07;101869.02;1952323;73;21513;-62
2021/09/06 09:56:14;;;;;;;3.50;1.70;;;;;;;24.98;27.90;101870.08;1952440;73;21026;-62
2021/09/06 09:58:43;;;;;;;6.50;2.05;;;;;;;25.28;27.47;101875.27;1952202;73;21109;-62
2021/09/06 10:01:13;;;;;;;2.80;1.37;;;;;;;25.01;27.26;101872.53;1952532;73;21466;-62
2021/09/06 10:03:43;;;;;;;2.40;1.27;;;;;;;25.00;26.77;101874.84;1952421;73;21055;-61
2021/09/06 10:06:12;;;;;;;2.80;1.12;;;;;;;25.17;27.40;101873.94;1952282;73;21009;-61
2021/09/06 10:08:42;;;;;;;3.35;1.30;;;;;;;25.16;27.23;101873.09;1952406;73;21436;-61
2021/09/06 10:11:14;;;;;;;3.00;1.25;;;;;;;24.90;27.46;101873.91;1952227;73;21445;-63
2021/09/06 10:13:43;;;;;;;3.27;1.40;;;;;;;24.68;27.41;101876.62;1952626;73;21046;-62
2021/09/06 10:16:13;;;;;;;5.53;1.30;;;;;;;24.65;27.65;101875.89;1952337;73;21051;-61
2021/09/06 10:18:43;;;;;;;5.45;2.35;;;;;;;25.02;27.68;101866.64;1952412;73;21047;-62
2021/09/06 10:21:18;;;;;;;5.35;1.55;;;;;;;25.22;27.64;101866.33;1952343;73;21149;-61
2021/09/06 10:23:55;;;;;;;11.85;4.75;;;;;;;25.31;27.68;101869.63;1952354;73;21449;-62
2021/09/06 10:26:20;;;;;;;;;;;;;;;25.13;28.20;101872.48;1953776;73;21059;-62
2021/09/06 10:28:51;;;;;;;5.58;2.92;;;;;;;24.76;28.57;101867.44;1952206;73;20154;-61
2021/09/06 10:31:24;;;;;;;2.83;1.35;;;;;;;24.81;29.00;101874.66;1952338;73;21567;-61
2021/09/06 10:34:02;;;;;;;7.33;2.65;;;;;;;24.48;29.60;101870.98;1952486;73;21453;-62
2021/09/06 10:36:32;;;;;;;5.08;2.50;;;;;;;24.28;29.87;101873.42;1952009;73;21125;-61
2021/09/06 10:39:05;;;;;;;5.75;1.95;;;;;;;24.89;30.10;101872.18;1952366;73;21113;-61
2021/09/06 10:41:49;;;;;;;2.87;1.12;;;;;;;25.14;29.16;101866.09;1952309;73;21129;-61
2021/09/06 10:44:19;;;;;;;4.70;1.20;;;;;;;25.26;28.59;101869.16;1952291;73;21050;-62
2021/09/06 10:47:07;;;;;;;3.65;1.07;;;;;;;25.29;28.42;101868.91;1952151;73;21066;-62
2021/09/06 10:49:42;;;;;;;2.40;1.17;;;;;;;24.94;28.54;101874.02;1952366;73;21051;-62
2021/09/06 10:52:14;;;;;;;4.37;1.52;;;;;;;24.24;29.10;101869.77;1952234;73;21079;-62
2021/09/06 10:54:44;;;;;;;3.35;1.70;;;;;;;23.58;29.79;101873.02;1952539;73;21030;-62
2021/09/06 10:57:15;;;;;;;3.83;1.30;;;;;;;23.05;30.62;101880.11;1952155;73;21450;-62
2021/09/06 10:59:47;;;;;;;6.47;1.65;;;;;;;22.82;30.89;101867.02;1952455;73;21023;-61
2021/09/06 11:02:18;;;;;;;4.37;1.50;;;;;;;23.21;31.30;101873.13;1952464;73;21453;-61
2021/09/06 11:04:50;;;;;;;5.28;1.57;;;;;;;23.21;30.67;101869.59;1952239;73;21156;-62
2021/09/06 11:07:19;;;;;;;4.80;1.30;;;;;;;23.37;31.01;101870.15;1952202;73;21508;-61
2021/09/06 11:09:48;;;;;;;4.80;1.92;;;;;;;23.28;30.63;101862.78;1952126;73;21090;-62
2021/09/06 11:12:18;;;;;;;2.15;0.90;;;;;;;23.34;30.95;101865.49;1952290;73;21026;-61
2021/09/06 11:14:48;;;;;;;3.55;1.07;;;;;;;23.51;30.24;101867.25;1952370;73;21088;-61
2021/09/06 11:17:22;;;;;;;3.45;0.85;;;;;;;23.38;30.24;101859.75;1952354;73;21094;-62
2021/09/06 11:19:56;;;;;;;6.05;1.20;;;;;;;23.29;30.12;101859.11;1952226;73;21097;-61
2021/09/06 11:22:28;;;;;;;6.37;2.40;;;;;;;23.03;30.46;101857.84;1952194;73;21054;-62
2021/09/06 11:25:04;;;;;;;10.00;3.58;;;;;;;23.06;31.47;101863.53;1952418;73;21169;-62
2021/09/06 11:27:36;;;;;;;8.28;4.15;;;;;;;23.04;30.95;101855.58;1952379;73;21007;-61
2021/09/06 11:30:07;;;;;;;8.18;3.15;;;;;;;22.95;31.16;101854.89;1952357;73;21101;-62
2021/09/06 11:32:39;;;;;;;5.15;1.85;;;;;;;22.77;31.71;101840.13;1952231;73;21003;-62
2021/09/06 11:35:10;;;;;;;7.10;1.50;;;;;;;22.66;31.66;101855.18;1951251;73;21035;-61
2021/09/06 11:37:39;;;;;;;7.72;2.40;;;;;;;22.55;32.05;101848.39;1952260;73;21074;-62
2021/09/06 11:40:09;;;;;;;5.37;2.47;;;;;;;22.60;32.26;101846.24;1952427;73;21027;-62
2021/09/06 11:42:38;;;;;;;6.05;1.87;;;;;;;22.61;32.01;101852.46;1952339;73;21089;-61
2021/09/06 11:45:09;;;;;;;2.00;1.20;;;;;;;22.56;31.41;101848.78;1952231;73;21477;-62
2021/09/06 11:47:42;;;;;;;7.33;1.32;;;;;;;22.53;31.40;101847.66;1952291;73;21019;-62
2021/09/06 11:50:12;;;;;;;5.22;1.20;;;;;;;22.54;31.96;101852.06;1952426;73;21433;-62
2021/09/06 11:52:43;;;;;;;3.15;1.45;;;;;;;22.54;32.44;101847.55;1941121;73;21063;-61
2021/09/06 11:55:21;;;;;;;4.78;1.70;;;;;;;22.52;32.17;101848.61;1935690;74;21040;-62